sensor_id;sensor_type;location;lat;lon;timestamp;pressure;altitude;pressure_sealevel;temperature;humidity
58775;BME280;44545;47.480;19.024;2022-07-01T03:10:25;99746.78;;;23.70;76.00
58775;BME280;44545;47.480;19.024;2022-07-01T03:13:27;99746.78;;;23.70;76.00
58775;BME280;44545;47.480;19.024;2022-07-01T03:16:29;99748.13;;;23.12;77.32
58775;BME280;44545;47.480;19.024;2022-07-01T03:19:32;99760.62;;;22.98;79.28
58775;BME280;44545;47.480;19.024;2022-07-01T03:22:35;99762.34;;;23.05;77.70
58775;BME280;44545;47.480;19.024;2022-07-01T03:25:38;99758.72;;;23.19;76.94
58775;BME280;44545;47.480;19.024;2022-07-01T03:28:40;99763.97;;;23.28;75.85
58775;BME280;44545;47.480;19.024;2022-07-01T03:31:43;99763.03;;;23.33;75.35
58775;BME280;44545;47.480;19.024;2022-07-01T03:34:47;99777.19;;;23.39;77.04
58775;BME280;44545;47.480;19.024;2022-07-01T03:37:49;99782.47;;;23.43;76.63
58775;BME280;44545;47.480;19.024;2022-07-01T03:40:52;99789.56;;;23.46;76.60
58775;BME280;44545;47.480;19.024;2022-07-01T03:43:54;99791.47;;;23.28;77.88
58775;BME280;44545;47.480;19.024;2022-07-01T03:46:56;99793.25;;;23.28;78.06
58775;BME280;44545;47.480;19.024;2022-07-01T03:49:59;99800.31;;;23.29;77.13
58775;BME280;44545;47.480;19.024;2022-07-01T03:53:01;99798.53;;;23.31;77.04
58775;BME280;44545;47.480;19.024;2022-07-01T03:56:36;99811.75;;;23.43;76.67
58775;BME280;44545;47.480;19.024;2022-07-01T03:59:39;99813.38;;;23.61;76.36
58775;BME280;44545;47.480;19.024;2022-07-01T04:02:42;99813.28;;;23.78;75.51
58775;BME280;44545;47.480;19.024;2022-07-01T04:05:45;99822.12;;;23.80;76.40
58775;BME280;44545;47.480;19.024;2022-07-01T04:08:47;99813.13;;;23.96;74.26
58775;BME280;44545;47.480;19.024;2022-07-01T04:11:51;99814.78;;;24.07;75.06
58775;BME280;44545;47.480;19.024;2022-07-01T04:14:53;99815.66;;;24.07;74.11
58775;BME280;44545;47.480;19.024;2022-07-01T04:17:56;99819.97;;;24.22;71.19
58775;BME280;44545;47.480;19.024;2022-07-01T04:20:58;99815.34;;;24.38;71.03
58775;BME280;44545;47.480;19.024;2022-07-01T04:24:20;99811.59;;;24.59;71.39
58775;BME280;44545;47.480;19.024;2022-07-01T04:27:24;99815.50;;;24.98;71.30
58775;BME280;44545;47.480;19.024;2022-07-01T04:30:27;99810.69;;;25.28;69.48
58775;BME280;44545;47.480;19.024;2022-07-01T04:33:29;99804.06;;;25.52;68.05
58775;BME280;44545;47.480;19.024;2022-07-01T04:36:35;99811.03;;;25.62;67.64
58775;BME280;44545;47.480;19.024;2022-07-01T04:39:37;99806.34;;;25.77;66.33
58775;BME280;44545;47.480;19.024;2022-07-01T04:42:40;99804.94;;;26.08;66.79
58775;BME280;44545;47.480;19.024;2022-07-01T04:45:42;99805.06;;;26.49;61.76
58775;BME280;44545;47.480;19.024;2022-07-01T04:48:45;99796.75;;;26.63;60.30
58775;BME280;44545;47.480;19.024;2022-07-01T04:51:47;99794.81;;;26.71;60.62
58775;BME280;44545;47.480;19.024;2022-07-01T04:54:50;99786.75;;;27.13;58.63
58775;BME280;44545;47.480;19.024;2022-07-01T04:57:54;99793.06;;;27.10;59.88
58775;BME280;44545;47.480;19.024;2022-07-01T05:00:56;99787.75;;;27.48;57.53
58775;BME280;44545;47.480;19.024;2022-07-01T05:03:59;99791.75;;;28.01;57.45
58775;BME280;44545;47.480;19.024;2022-07-01T05:07:01;99794.47;;;28.00;55.42
58775;BME280;44545;47.480;19.024;2022-07-01T05:10:04;99791.66;;;28.37;56.54
58775;BME280;44545;47.480;19.024;2022-07-01T05:13:07;99797.59;;;28.50;53.96
58775;BME280;44545;47.480;19.024;2022-07-01T05:16:12;99797.84;;;28.72;53.15
58775;BME280;44545;47.480;19.024;2022-07-01T05:19:15;99808.03;;;28.90;53.34
58775;BME280;44545;47.480;19.024;2022-07-01T05:22:36;99810.19;;;29.37;51.34
58775;BME280;44545;47.480;19.024;2022-07-01T05:25:38;99817.19;;;29.71;50.09
58775;BME280;44545;47.480;19.024;2022-07-01T05:28:40;99817.47;;;30.15;49.24
58775;BME280;44545;47.480;19.024;2022-07-01T05:31:49;99816.44;;;29.92;49.21
58775;BME280;44545;47.480;19.024;2022-07-01T05:34:51;99818.22;;;29.93;49.36
58775;BME280;44545;47.480;19.024;2022-07-01T05:37:53;99815.41;;;29.96;49.76
58775;BME280;44545;47.480;19.024;2022-07-01T05:40:56;99817.34;;;30.44;48.82
58775;BME280;44545;47.480;19.024;2022-07-01T05:43:58;99825.37;;;30.70;48.39
58775;BME280;44545;47.480;19.024;2022-07-01T05:47:00;99826.84;;;30.78;47.99
58775;BME280;44545;47.480;19.024;2022-07-01T05:50:03;99833.25;;;30.99;47.81
58775;BME280;44545;47.480;19.024;2022-07-01T05:53:05;99839.97;;;31.11;47.59
58775;BME280;44545;47.480;19.024;2022-07-01T05:56:07;99840.56;;;30.96;48.43
58775;BME280;44545;47.480;19.024;2022-07-01T05:59:09;99831.97;;;31.55;46.95
58775;BME280;44545;47.480;19.024;2022-07-01T06:02:12;99831.13;;;31.97;45.57
58775;BME280;44545;47.480;19.024;2022-07-01T06:05:14;99843.03;;;31.69;45.43
58775;BME280;44545;47.480;19.024;2022-07-01T06:08:16;99847.13;;;32.02;45.28
58775;BME280;44545;47.480;19.024;2022-07-01T06:11:19;99860.09;;;31.24;47.10
58775;BME280;44545;47.480;19.024;2022-07-01T06:14:21;99858.09;;;31.29;47.45
58775;BME280;44545;47.480;19.024;2022-07-01T06:17:23;99861.28;;;30.94;48.59
58775;BME280;44545;47.480;19.024;2022-07-01T06:20:25;99860.31;;;31.65;47.44
58775;BME280;44545;47.480;19.024;2022-07-01T06:23:28;99858.06;;;31.07;48.11
58775;BME280;44545;47.480;19.024;2022-07-01T06:26:31;99856.66;;;31.88;46.60
58775;BME280;44545;47.480;19.024;2022-07-01T06:29:34;99857.53;;;31.89;46.34
58775;BME280;44545;47.480;19.024;2022-07-01T06:32:37;99856.78;;;31.63;45.89
58775;BME280;44545;47.480;19.024;2022-07-01T06:35:40;99857.88;;;32.03;45.18
58775;BME280;44545;47.480;19.024;2022-07-01T06:38:42;99853.41;;;31.58;46.70
58775;BME280;44545;47.480;19.024;2022-07-01T06:41:45;99862.16;;;32.07;45.31
58775;BME280;44545;47.480;19.024;2022-07-01T06:44:47;99847.13;;;32.22;45.11
58775;BME280;44545;47.480;19.024;2022-07-01T06:47:51;99851.28;;;32.91;43.33
58775;BME280;44545;47.480;19.024;2022-07-01T06:50:53;99855.84;;;32.70;43.94
58775;BME280;44545;47.480;19.024;2022-07-01T06:53:56;99861.09;;;32.11;45.35
58775;BME280;44545;47.480;19.024;2022-07-01T06:56:58;99853.84;;;32.94;44.26
58775;BME280;44545;47.480;19.024;2022-07-01T07:00:00;99847.87;;;33.06;43.58
58775;BME280;44545;47.480;19.024;2022-07-01T07:03:03;99847.53;;;33.33;42.47
58775;BME280;44545;47.480;19.024;2022-07-01T07:06:06;99846.72;;;33.69;41.78
58775;BME280;44545;47.480;19.024;2022-07-01T07:09:08;99852.84;;;33.53;42.23
58775;BME280;44545;47.480;19.024;2022-07-01T07:12:11;99855.84;;;33.47;42.54
58775;BME280;44545;47.480;19.024;2022-07-01T07:15:13;99844.81;;;33.71;41.69
58775;BME280;44545;47.480;19.024;2022-07-01T07:18:15;99838.00;;;34.16;40.94
58775;BME280;44545;47.480;19.024;2022-07-01T07:21:17;99847.13;;;33.78;41.70
58775;BME280;44545;47.480;19.024;2022-07-01T07:24:20;99845.25;;;33.61;43.18
58775;BME280;44545;47.480;19.024;2022-07-01T07:27:22;99838.19;;;34.13;41.04
58775;BME280;44545;47.480;19.024;2022-07-01T07:30:24;99836.22;;;34.16;41.27
58775;BME280;44545;47.480;19.024;2022-07-01T07:33:27;99840.69;;;35.01;39.86
58775;BME280;44545;47.480;19.024;2022-07-01T07:36:29;99835.59;;;35.12;38.92
58775;BME280;44545;47.480;19.024;2022-07-01T07:39:32;99840.19;;;34.26;40.11
58775;BME280;44545;47.480;19.024;2022-07-01T07:42:34;99827.91;;;34.19;39.94
58775;BME280;44545;47.480;19.024;2022-07-01T07:45:36;99833.72;;;34.29;39.67
58775;BME280;44545;47.480;19.024;2022-07-01T07:48:40;99831.16;;;34.26;39.73
58775;BME280;44545;47.480;19.024;2022-07-01T07:51:45;99836.31;;;34.65;39.14
58775;BME280;44545;47.480;19.024;2022-07-01T07:54:47;99834.41;;;34.67;38.11
58775;BME280;44545;47.480;19.024;2022-07-01T07:57:50;99834.37;;;33.80;38.86
58775;BME280;44545;47.480;19.024;2022-07-01T08:00:53;99836.75;;;34.23;37.86
58775;BME280;44545;47.480;19.024;2022-07-01T08:03:55;99849.16;;;34.27;37.63
58775;BME280;44545;47.480;19.024;2022-07-01T08:06:57;99856.94;;;33.98;37.84
58775;BME280;44545;47.480;19.024;2022-07-01T08:10:01;99843.19;;;34.38;36.32
58775;BME280;44545;47.480;19.024;2022-07-01T08:13:03;99852.91;;;34.42;36.89
58775;BME280;44545;47.480;19.024;2022-07-01T08:16:08;99846.28;;;34.13;37.94
58775;BME280;44545;47.480;19.024;2022-07-01T08:19:10;99856.63;;;35.07;36.35
58775;BME280;44545;47.480;19.024;2022-07-01T08:22:12;99861.63;;;34.82;36.50
58775;BME280;44545;47.480;19.024;2022-07-01T08:25:15;99849.97;;;34.29;37.41
58775;BME280;44545;47.480;19.024;2022-07-01T08:28:18;99855.97;;;34.69;36.91
58775;BME280;44545;47.480;19.024;2022-07-01T08:31:20;99848.72;;;34.87;36.73
58775;BME280;44545;47.480;19.024;2022-07-01T08:34:25;99860.69;;;34.65;37.12
58775;BME280;44545;47.480;19.024;2022-07-01T08:37:28;99852.03;;;34.24;37.97
58775;BME280;44545;47.480;19.024;2022-07-01T08:40:31;99855.50;;;34.43;37.13
58775;BME280;44545;47.480;19.024;2022-07-01T08:43:34;99854.41;;;34.47;37.23
58775;BME280;44545;47.480;19.024;2022-07-01T08:46:36;99852.00;;;34.76;36.37
58775;BME280;44545;47.480;19.024;2022-07-01T08:49:38;99859.72;;;34.66;36.42
58775;BME280;44545;47.480;19.024;2022-07-01T08:52:41;99863.19;;;34.86;34.83
58775;BME280;44545;47.480;19.024;2022-07-01T08:55:43;99850.94;;;34.79;35.25
58775;BME280;44545;47.480;19.024;2022-07-01T08:59:04;99850.19;;;35.73;34.05
58775;BME280;44545;47.480;19.024;2022-07-01T09:02:09;99844.66;;;36.21;32.89
58775;BME280;44545;47.480;19.024;2022-07-01T09:05:12;99846.31;;;36.97;31.59
58775;BME280;44545;47.480;19.024;2022-07-01T09:08:14;99849.22;;;36.94;29.63
58775;BME280;44545;47.480;19.024;2022-07-01T09:11:18;99839.34;;;36.78;29.99
58775;BME280;44545;47.480;19.024;2022-07-01T09:14:25;99844.50;;;36.97;29.63
58775;BME280;44545;47.480;19.024;2022-07-01T09:17:29;99840.63;;;37.57;29.29
58775;BME280;44545;47.480;19.024;2022-07-01T09:20:33;99828.09;;;38.09;28.46
58775;BME280;44545;47.480;19.024;2022-07-01T09:23:36;99835.50;;;38.20;27.77
58775;BME280;44545;47.480;19.024;2022-07-01T09:26:38;99838.19;;;38.85;27.25
58775;BME280;44545;47.480;19.024;2022-07-01T09:29:49;99833.53;;;40.09;25.25
58775;BME280;44545;47.480;19.024;2022-07-01T09:33:14;99834.50;;;40.32;24.77
58775;BME280;44545;47.480;19.024;2022-07-01T09:36:17;99831.34;;;42.15;23.17
58775;BME280;44545;47.480;19.024;2022-07-01T09:39:19;99818.13;;;41.88;22.47
58775;BME280;44545;47.480;19.024;2022-07-01T09:42:44;99825.25;;;42.33;22.14
58775;BME280;44545;47.480;19.024;2022-07-01T09:45:53;99820.19;;;43.51;20.56
58775;BME280;44545;47.480;19.024;2022-07-01T09:48:55;99819.09;;;42.61;21.79
58775;BME280;44545;47.480;19.024;2022-07-01T09:51:58;99814.16;;;43.96;20.46
58775;BME280;44545;47.480;19.024;2022-07-01T09:55:00;99818.78;;;44.91;19.76
58775;BME280;44545;47.480;19.024;2022-07-01T09:58:02;99817.53;;;46.57;17.10
58775;BME280;44545;47.480;19.024;2022-07-01T10:01:07;99821.53;;;44.91;18.59
58775;BME280;44545;47.480;19.024;2022-07-01T10:04:12;99808.19;;;45.24;18.73
58775;BME280;44545;47.480;19.024;2022-07-01T10:10:48;99805.22;;;45.99;17.69
58775;BME280;44545;47.480;19.024;2022-07-01T10:13:54;99797.19;;;46.84;16.94
58775;BME280;44545;47.480;19.024;2022-07-01T10:16:56;99801.97;;;43.50;20.57
58775;BME280;44545;47.480;19.024;2022-07-01T10:20:10;99798.50;;;42.67;21.42
58775;BME280;44545;47.480;19.024;2022-07-01T10:23:12;99793.22;;;44.62;18.68
58775;BME280;44545;47.480;19.024;2022-07-01T10:26:17;99793.59;;;46.57;17.51
58775;BME280;44545;47.480;19.024;2022-07-01T10:32:32;99784.78;;;45.92;18.01
58775;BME280;44545;47.480;19.024;2022-07-01T10:35:54;99788.72;;;43.94;19.98
58775;BME280;44545;47.480;19.024;2022-07-01T10:42:07;99779.81;;;41.56;22.10
58775;BME280;44545;47.480;19.024;2022-07-01T10:45:19;99784.97;;;41.70;22.16
58775;BME280;44545;47.480;19.024;2022-07-01T10:48:24;99781.91;;;42.38;21.64
58775;BME280;44545;47.480;19.024;2022-07-01T10:51:52;99784.44;;;43.22;20.09
58775;BME280;44545;47.480;19.024;2022-07-01T10:54:58;99771.63;;;45.50;17.31
58775;BME280;44545;47.480;19.024;2022-07-01T10:58:02;99763.69;;;46.00;16.71
58775;BME280;44545;47.480;19.024;2022-07-01T11:01:04;99779.69;;;47.60;15.19
58775;BME280;44545;47.480;19.024;2022-07-01T11:04:07;99768.12;;;47.48;15.26
58775;BME280;44545;47.480;19.024;2022-07-01T11:07:09;99770.34;;;47.45;15.54
58775;BME280;44545;47.480;19.024;2022-07-01T11:10:14;99773.53;;;46.81;15.82
58775;BME280;44545;47.480;19.024;2022-07-01T11:13:18;99760.84;;;44.55;17.68
58775;BME280;44545;47.480;19.024;2022-07-01T11:16:21;99769.56;;;44.41;18.21
58775;BME280;44545;47.480;19.024;2022-07-01T11:19:23;99767.72;;;41.47;20.85
58775;BME280;44545;47.480;19.024;2022-07-01T11:22:33;99769.72;;;38.77;23.50
58775;BME280;44545;47.480;19.024;2022-07-01T11:25:36;99770.50;;;37.48;25.93
58775;BME280;44545;47.480;19.024;2022-07-01T11:28:40;99761.38;;;37.89;25.14
58775;BME280;44545;47.480;19.024;2022-07-01T11:31:42;99769.81;;;37.17;25.96
58775;BME280;44545;47.480;19.024;2022-07-01T11:34:45;99768.47;;;36.24;27.85
58775;BME280;44545;47.480;19.024;2022-07-01T11:37:48;99755.91;;;35.77;28.98
58775;BME280;44545;47.480;19.024;2022-07-01T11:41:29;99761.56;;;35.42;29.48
58775;BME280;44545;47.480;19.024;2022-07-01T11:44:36;99747.09;;;35.57;29.93
58775;BME280;44545;47.480;19.024;2022-07-01T11:47:38;99749.87;;;36.47;28.50
58775;BME280;44545;47.480;19.024;2022-07-01T11:50:40;99743.94;;;36.54;29.57
58775;BME280;44545;47.480;19.024;2022-07-01T11:53:46;99739.38;;;36.26;28.74
58775;BME280;44545;47.480;19.024;2022-07-01T11:56:49;99727.97;;;35.91;28.89
58775;BME280;44545;47.480;19.024;2022-07-01T11:59:53;99726.19;;;36.34;28.10
58775;BME280;44545;47.480;19.024;2022-07-01T12:02:56;99731.06;;;36.72;27.46
58775;BME280;44545;47.480;19.024;2022-07-01T12:05:58;99732.00;;;36.85;27.72
58775;BME280;44545;47.480;19.024;2022-07-01T12:09:02;99723.12;;;37.38;26.18
58775;BME280;44545;47.480;19.024;2022-07-01T12:12:05;99713.97;;;37.39;25.77
58775;BME280;44545;47.480;19.024;2022-07-01T12:15:13;99708.84;;;37.61;24.46
58775;BME280;44545;47.480;19.024;2022-07-01T12:18:16;99698.63;;;37.65;25.31
58775;BME280;44545;47.480;19.024;2022-07-01T12:21:18;99701.09;;;37.55;25.17
58775;BME280;44545;47.480;19.024;2022-07-01T12:24:21;99700.03;;;37.30;25.02
58775;BME280;44545;47.480;19.024;2022-07-01T12:27:26;99696.59;;;37.14;25.68
58775;BME280;44545;47.480;19.024;2022-07-01T12:30:28;99697.09;;;37.61;24.53
58775;BME280;44545;47.480;19.024;2022-07-01T12:33:39;99696.34;;;37.31;25.39
58775;BME280;44545;47.480;19.024;2022-07-01T12:36:50;99692.53;;;37.07;25.76
58775;BME280;44545;47.480;19.024;2022-07-01T12:39:54;99688.75;;;37.09;25.71
58775;BME280;44545;47.480;19.024;2022-07-01T12:42:57;99683.09;;;36.71;25.35
58775;BME280;44545;47.480;19.024;2022-07-01T12:46:02;99681.34;;;36.84;25.79
58775;BME280;44545;47.480;19.024;2022-07-01T12:49:04;99672.06;;;37.28;24.66
58775;BME280;44545;47.480;19.024;2022-07-01T12:52:23;99663.84;;;37.43;25.17
58775;BME280;44545;47.480;19.024;2022-07-01T12:55:26;99668.38;;;37.02;25.73
58775;BME280;44545;47.480;19.024;2022-07-01T12:58:28;99659.66;;;35.98;26.52
58775;BME280;44545;47.480;19.024;2022-07-01T13:01:31;99659.81;;;36.53;25.75
58775;BME280;44545;47.480;19.024;2022-07-01T13:04:33;99655.12;;;36.83;25.44
58775;BME280;44545;47.480;19.024;2022-07-01T13:07:37;99652.44;;;37.11;25.00
58775;BME280;44545;47.480;19.024;2022-07-01T13:10:46;99651.97;;;37.04;24.51
58775;BME280;44545;47.480;19.024;2022-07-01T13:13:49;99644.97;;;37.27;22.74
58775;BME280;44545;47.480;19.024;2022-07-01T13:16:51;99640.78;;;37.36;24.19
58775;BME280;44545;47.480;19.024;2022-07-01T13:19:54;99648.81;;;37.37;23.10
58775;BME280;44545;47.480;19.024;2022-07-01T13:22:56;99650.37;;;37.14;23.05
58775;BME280;44545;47.480;19.024;2022-07-01T13:25:59;99640.72;;;36.96;24.03
58775;BME280;44545;47.480;19.024;2022-07-01T13:29:01;99642.66;;;36.94;24.15
58775;BME280;44545;47.480;19.024;2022-07-01T13:32:04;99645.59;;;36.91;24.50
58775;BME280;44545;47.480;19.024;2022-07-01T13:35:08;99632.56;;;36.96;24.29
58775;BME280;44545;47.480;19.024;2022-07-01T13:38:11;99627.50;;;37.04;24.79
58775;BME280;44545;47.480;19.024;2022-07-01T13:41:13;99625.13;;;37.12;24.13
58775;BME280;44545;47.480;19.024;2022-07-01T13:44:15;99630.56;;;37.12;24.48
58775;BME280;44545;47.480;19.024;2022-07-01T13:47:17;99617.03;;;36.98;24.52
58775;BME280;44545;47.480;19.024;2022-07-01T13:50:20;99623.09;;;37.16;24.37
58775;BME280;44545;47.480;19.024;2022-07-01T13:53:22;99621.91;;;36.65;24.36
58775;BME280;44545;47.480;19.024;2022-07-01T13:56:25;99627.37;;;36.08;25.30
58775;BME280;44545;47.480;19.024;2022-07-01T13:59:28;99623.59;;;36.25;25.51
58775;BME280;44545;47.480;19.024;2022-07-01T14:02:30;99622.31;;;36.59;24.51
58775;BME280;44545;47.480;19.024;2022-07-01T14:05:34;99614.81;;;36.63;24.72
58775;BME280;44545;47.480;19.024;2022-07-01T14:08:36;99618.53;;;36.62;24.39
58775;BME280;44545;47.480;19.024;2022-07-01T14:11:38;99607.03;;;36.71;24.89
58775;BME280;44545;47.480;19.024;2022-07-01T14:14:42;99610.72;;;36.97;24.13
58775;BME280;44545;47.480;19.024;2022-07-01T14:17:44;99614.88;;;37.03;23.92
58775;BME280;44545;47.480;19.024;2022-07-01T14:20:47;99618.03;;;37.37;22.90
58775;BME280;44545;47.480;19.024;2022-07-01T14:23:50;99612.34;;;37.27;23.63
58775;BME280;44545;47.480;19.024;2022-07-01T14:26:57;99610.72;;;37.24;23.73
58775;BME280;44545;47.480;19.024;2022-07-01T14:29:59;99611.44;;;37.14;23.47
58775;BME280;44545;47.480;19.024;2022-07-01T14:33:01;99614.47;;;37.09;23.38
58775;BME280;44545;47.480;19.024;2022-07-01T14:36:04;99607.44;;;36.51;23.80
58775;BME280;44545;47.480;19.024;2022-07-01T14:39:06;99606.16;;;36.15;24.24
58775;BME280;44545;47.480;19.024;2022-07-01T14:42:09;99608.84;;;35.86;24.74
58775;BME280;44545;47.480;19.024;2022-07-01T14:45:12;99608.44;;;35.64;25.72
58775;BME280;44545;47.480;19.024;2022-07-01T14:48:16;99604.31;;;36.01;25.14
58775;BME280;44545;47.480;19.024;2022-07-01T14:51:18;99597.03;;;36.16;25.03
58775;BME280;44545;47.480;19.024;2022-07-01T14:54:20;99589.87;;;36.15;24.72
58775;BME280;44545;47.480;19.024;2022-07-01T14:57:23;99590.00;;;36.40;24.68
58775;BME280;44545;47.480;19.024;2022-07-01T15:00:26;99590.69;;;36.44;24.77
